Time;durP1;ratioP1;P1;durP2;ratioP2;P2;SDS_P1;SDS_P2;PMS_P1;PMS_P2;Temp;Humidity;BMP_temperature;BMP_pressure;BME280_temperature;BME280_humidity;BME280_pressure;Samples;Min_cycle;Max_cycle;Signal;HPM_P1;HPM_P2
2023/12/09 00:01:11;;;;;;;300.20;59.42;;;1.60;99.90;;;-0.13;100.00;100910.91;4927022;28;20903;-86
2023/12/09 00:03:37;;;;;;;291.77;59.47;;;1.60;99.90;;;-0.10;100.00;100905.75;4953579;28;20028;-82
2023/12/09 00:06:04;;;;;;;281.88;57.92;;;1.60;99.90;;;-0.13;100.00;100898.84;4954151;28;20052;-82
2023/12/09 00:08:29;;;;;;;257.77;53.50;;;1.50;99.90;;;-0.13;100.00;100901.44;4947111;28;20093;-82
2023/12/09 00:11:02;;;;;;;236.75;49.72;;;1.50;99.90;;;-0.15;100.00;100908.34;4920156;28;20467;-82
2023/12/09 00:13:28;;;;;;;279.45;56.55;;;1.50;99.90;;;-0.16;100.00;100901.41;4941716;28;20069;-82
2023/12/09 00:15:54;;;;;;;258.60;54.20;;;1.50;99.90;;;-0.13;100.00;100903.13;4929985;28;20053;-82
2023/12/09 00:18:20;;;;;;;268.10;55.17;;;1.50;99.90;;;-0.17;100.00;100904.00;4957909;28;20034;-82
2023/12/09 00:20:46;;;;;;;257.58;55.47;;;1.50;99.90;;;-0.21;100.00;100903.16;4912970;28;20353;-82
2023/12/09 00:23:18;;;;;;;264.02;55.17;;;1.50;99.90;;;-0.18;100.00;100899.69;4921423;28;20041;-87
2023/12/09 00:25:44;;;;;;;321.73;60.50;;;1.50;99.90;;;-0.14;100.00;100899.69;4951470;28;20046;-82
2023/12/09 00:28:10;;;;;;;312.05;59.33;;;1.50;99.90;;;-0.15;100.00;100894.50;4913008;28;20720;-82
2023/12/09 00:30:38;;;;;;;324.05;60.70;;;1.50;99.90;;;-0.11;100.00;100891.94;4911041;28;20050;-82
2023/12/09 00:33:13;;;;;;;309.30;57.33;;;1.50;99.90;;;-0.10;100.00;100898.84;4911814;28;20025;-82
2023/12/09 00:35:38;;;;;;;293.30;55.25;;;1.50;99.90;;;-0.08;100.00;100898.84;4919490;28;20042;-83
2023/12/09 00:38:04;;;;;;;245.65;47.90;;;1.60;99.90;;;-0.11;100.00;100898.81;4943005;28;20041;-82
2023/12/09 00:40:30;;;;;;;315.60;58.75;;;1.60;99.90;;;-0.09;100.00;100892.78;4927501;28;20244;-82
2023/12/09 00:43:05;;;;;;;329.73;60.17;;;1.60;99.90;;;-0.02;100.00;100885.91;4935656;28;20038;-83
2023/12/09 00:45:30;;;;;;;329.25;57.53;;;1.60;99.90;;;-0.01;100.00;100883.28;4960108;28;20670;-82
2023/12/09 00:47:56;;;;;;;304.33;56.10;;;1.60;99.90;;;0.01;100.00;100887.63;4947532;28;20048;-86
2023/12/09 00:50:22;;;;;;;336.80;62.72;;;1.60;99.90;;;-0.01;100.00;100892.78;4916529;28;20467;-82
2023/12/09 00:52:52;;;;;;;283.85;56.55;;;1.60;99.90;;;-0.04;100.00;100893.66;4918567;28;20034;-82
2023/12/09 00:55:18;;;;;;;284.83;56.20;;;1.60;99.90;;;-0.02;100.00;100888.50;4915435;28;20029;-82
2023/12/09 00:57:44;;;;;;;332.35;61.38;;;1.60;99.90;;;-0.03;100.00;100882.44;4946747;28;20033;-82
2023/12/09 01:00:11;;;;;;;303.67;57.28;;;1.60;99.90;;;-0.03;100.00;100894.50;4939360;28;20110;-82
2023/12/09 01:02:39;;;;;;;295.95;56.83;;;1.60;99.90;;;0.00;100.00;100894.53;4972660;28;20114;-83
2023/12/09 01:05:12;;;;;;;269.17;53.88;;;1.60;99.90;;;-0.03;100.00;100897.97;4926422;28;20033;-82
2023/12/09 01:07:38;;;;;;;279.83;56.50;;;1.60;99.90;;;-0.02;100.00;100898.84;4884493;28;20031;-82
2023/12/09 01:10:05;;;;;;;305.45;57.28;;;1.60;99.90;;;-0.05;100.00;100896.25;4950184;28;20047;-82
2023/12/09 01:12:31;;;;;;;250.55;50.63;;;1.60;99.90;;;-0.07;100.00;100897.97;4952760;28;20088;-86
2023/12/09 01:15:03;;;;;;;234.52;49.20;;;1.60;99.90;;;-0.10;100.00;100903.16;4945701;28;20041;-82
2023/12/09 01:17:28;;;;;;;265.80;53.83;;;1.60;99.90;;;-0.10;100.00;100896.25;4923954;28;20815;-84
2023/12/09 01:19:54;;;;;;;248.57;51.92;;;1.60;99.90;;;-0.11;100.00;100901.41;4930165;28;20046;-83
2023/12/09 01:22:20;;;;;;;279.30;57.35;;;1.60;99.90;;;-0.09;100.00;100907.47;4919472;28;20044;-82
2023/12/09 01:24:46;;;;;;;253.65;53.45;;;1.60;99.90;;;-0.09;100.00;100907.47;4938213;28;20168;-82
2023/12/09 01:27:21;;;;;;;294.30;55.35;;;1.60;99.90;;;-0.08;100.00;100910.06;4908246;28;20125;-82
2023/12/09 01:29:47;;;;;;;277.50;55.38;;;1.60;99.90;;;-0.08;100.00;100904.88;4908157;28;20501;-83
2023/12/09 01:32:13;;;;;;;266.35;52.25;;;1.60;99.90;;;-0.10;100.00;100904.00;4904240;28;20133;-85
2023/12/09 01:34:40;;;;;;;213.93;45.70;;;;;;;-0.09;100.00;100899.69;4888672;28;20035;-82
2023/12/09 01:37:13;;;;;;;244.32;50.65;;;1.60;99.90;;;-0.14;100.00;100904.03;4895255;28;20041;-82
2023/12/09 01:39:40;;;;;;;243.45;49.83;;;1.50;99.90;;;-0.12;100.00;100900.56;4929080;28;20045;-81
2023/12/09 01:42:08;;;;;;;238.25;50.42;;;;;;;-0.14;100.00;100904.88;4872131;28;20126;-83
2023/12/09 01:44:40;;;;;;;257.00;53.10;;;;;;;-0.12;100.00;100892.78;4885251;28;20046;-82
2023/12/09 01:47:07;;;;;;;239.35;50.15;;;1.50;99.90;;;-0.13;100.00;100891.09;4930260;28;20488;-82
2023/12/09 01:49:34;;;;;;;247.18;49.47;;;1.50;99.90;;;-0.13;100.00;100888.50;4903924;28;20044;-81
2023/12/09 01:52:06;;;;;;;276.75;54.63;;;1.60;99.90;;;-0.08;100.00;100893.66;4909125;28;20031;-82
2023/12/09 01:54:32;;;;;;;277.90;49.50;;;1.60;99.90;;;-0.08;100.00;100889.34;4922725;28;20031;-82
2023/12/09 01:56:59;;;;;;;219.48;45.58;;;1.60;99.90;;;-0.12;100.00;100895.38;4922515;28;20092;-82
2023/12/09 01:59:28;;;;;;;264.90;55.00;;;1.60;99.90;;;-0.13;100.00;100885.91;4955611;28;20083;-82
2023/12/09 02:01:58;;;;;;;224.10;47.50;;;1.50;99.90;;;-0.11;100.00;100888.47;4916242;28;20073;-82
2023/12/09 02:04:24;;;;;;;258.67;48.70;;;1.50;99.90;;;-0.15;100.00;100891.91;4950146;28;20056;-81
2023/12/09 02:06:50;;;;;;;263.05;49.95;;;1.50;99.90;;;-0.15;100.00;100890.22;4933058;28;20033;-82
2023/12/09 02:09:18;;;;;;;168.10;36.55;;;1.50;99.90;;;-0.13;100.00;100880.72;4905524;28;20517;-82
2023/12/09 02:11:56;;;;;;;248.18;51.97;;;1.50;99.90;;;-0.13;100.00;100878.16;4936929;28;20038;-82
2023/12/09 02:14:36;;;;;;;185.00;39.25;;;1.50;99.90;;;-0.13;100.00;100874.66;4909930;28;20487;-83
2023/12/09 02:17:29;;;;;;;274.10;52.78;;;1.50;99.90;;;-0.10;100.00;100870.38;4932651;28;20049;-86
2023/12/09 02:19:55;;;;;;;249.65;50.40;;;1.50;99.90;;;-0.14;100.00;100872.97;4910761;28;20038;-82
2023/12/09 02:22:21;;;;;;;251.52;51.08;;;1.60;99.90;;;-0.10;100.00;100874.69;4956822;28;20506;-82
2023/12/09 02:24:47;;;;;;;193.70;41.95;;;1.60;99.90;;;-0.09;100.00;100872.06;4954217;28;20030;-83
2023/12/09 02:27:32;;;;;;;191.10;43.05;;;1.60;99.90;;;-0.14;100.00;100871.22;4920244;28;20060;-82
2023/12/09 02:30:46;;;;;;;230.90;47.77;;;1.50;99.90;;;-0.10;100.00;100872.94;4921206;28;20033;-82
2023/12/09 02:33:14;;;;;;;244.70;48.95;;;1.50;99.90;;;-0.10;100.00;100882.44;4861863;29;20440;-84
2023/12/09 02:35:43;;;;;;;196.82;39.85;;;1.60;99.90;;;-0.11;100.00;100883.28;4873473;28;20045;-82
2023/12/09 02:38:18;;;;;;;273.00;50.47;;;1.60;99.90;;;-0.10;100.00;100878.13;4869438;29;20443;-84
2023/12/09 02:40:45;;;;;;;224.55;48.53;;;1.60;99.90;;;-0.06;100.00;100879.00;4839176;29;21449;-83
2023/12/09 02:43:18;;;;;;;278.02;50.60;;;1.60;99.90;;;-0.06;100.00;100864.31;4826381;29;20106;-87
2023/12/09 02:45:48;;;;;;;264.90;53.45;;;1.60;99.90;;;-0.06;100.00;100866.06;4815450;29;20451;-82
2023/12/09 02:48:14;;;;;;;156.40;31.55;;;1.60;99.90;;;-0.09;100.00;100863.44;4842139;29;20031;-82
2023/12/09 02:50:42;;;;;;;254.25;49.70;;;1.60;99.90;;;-0.09;100.00;100860.88;4915354;29;20132;-84
2023/12/09 02:53:11;;;;;;;272.70;51.33;;;1.60;99.90;;;-0.08;100.00;100862.59;4862433;29;20036;-82
2023/12/09 02:55:37;;;;;;;273.60;54.30;;;1.60;99.90;;;-0.06;100.00;100861.75;4895772;29;20476;-84
2023/12/09 02:58:02;;;;;;;220.60;46.17;;;1.60;99.90;;;-0.10;100.00;100859.16;4861942;28;20090;-82
2023/12/09 03:00:40;;;;;;;242.23;46.40;;;1.60;99.90;;;-0.06;100.00;100863.47;4876970;29;20062;-83
2023/12/09 03:03:08;;;;;;;214.73;46.22;;;1.60;99.90;;;-0.09;100.00;100855.69;4885697;28;20100;-82
2023/12/09 03:05:34;;;;;;;260.08;50.78;;;0.50;99.90;;;-0.11;100.00;100849.66;4915663;28;20057;-82
2023/12/09 03:08:00;;;;;;;226.70;46.53;;;1.50;99.90;;;-0.12;100.00;100850.53;4927858;28;20041;-82
2023/12/09 03:10:31;;;;;;;228.07;45.35;;;1.60;99.90;;;-0.12;100.00;100853.13;4968662;28;20219;-83
2023/12/09 03:12:58;;;;;;;240.98;47.20;;;1.50;99.90;;;-0.13;100.00;100843.59;4899332;28;20078;-83
2023/12/09 03:15:34;;;;;;;;;;;;;;;;;;;;;
2023/12/09 03:18:00;;;;;;;236.05;48.00;;;1.60;99.90;;;-0.12;100.00;100846.19;4861551;28;21687;-82
2023/12/09 03:20:26;;;;;;;236.35;47.47;;;1.50;99.90;;;-0.12;100.00;100845.34;4871163;28;20055;-82
2023/12/09 03:22:52;;;;;;;243.20;48.70;;;1.60;99.90;;;-0.12;100.00;100847.94;4861258;29;20430;-82
2023/12/09 03:25:18;;;;;;;254.40;48.55;;;1.60;99.90;;;-0.09;100.00;100850.50;4878276;28;20032;-82
2023/12/09 03:27:53;;;;;;;236.75;47.17;;;1.60;99.90;;;-0.07;100.00;100846.19;4870189;28;20682;-82
2023/12/09 03:30:19;;;;;;;243.43;48.40;;;;;;;-0.05;100.00;100847.91;4842509;29;20601;-82
2023/12/09 03:32:45;;;;;;;254.43;51.33;;;1.60;99.90;;;-0.03;100.00;100855.69;4900637;28;20046;-82
2023/12/09 03:35:12;;;;;;;257.35;51.03;;;1.60;99.90;;;-0.01;100.00;100846.19;4885425;28;20506;-82
2023/12/09 03:37:43;;;;;;;263.30;49.10;;;1.70;99.90;;;0.02;100.00;100847.91;4864064;28;20066;-82
2023/12/09 03:40:10;;;;;;;282.05;53.92;;;1.70;99.90;;;0.06;100.00;100850.50;4871889;29;20408;-82
2023/12/09 03:42:36;;;;;;;282.10;52.47;;;1.70;99.90;;;0.10;100.00;100859.13;4924550;28;20447;-82
2023/12/09 03:45:01;;;;;;;295.95;51.83;;;1.70;99.90;;;0.12;100.00;100854.81;4931235;28;20408;-86
2023/12/09 03:47:27;;;;;;;291.38;54.40;;;1.80;99.90;;;0.14;100.00;100850.50;4905043;28;20033;-82
2023/12/09 03:49:58;;;;;;;294.85;54.75;;;1.80;99.90;;;0.17;100.00;100850.47;4965070;28;20061;-82
2023/12/09 03:52:24;;;;;;;286.17;51.33;;;1.80;99.90;;;0.17;100.00;100855.66;4933437;28;20033;-82
2023/12/09 03:54:50;;;;;;;273.83;49.85;;;1.80;99.90;;;0.19;100.00;100857.41;4949471;28;20029;-82
2023/12/09 03:57:16;;;;;;;269.13;50.67;;;1.80;99.90;;;0.20;100.00;100853.94;4942855;28;20053;-83
2023/12/09 03:59:42;;;;;;;279.27;51.13;;;1.80;99.90;;;0.18;100.00;100845.28;4909054;28;20504;-82
2023/12/09 04:02:18;;;;;;;294.60;51.75;;;1.80;99.90;;;0.21;100.00;100849.59;4919240;28;20035;-83
2023/12/09 04:04:44;;;;;;;284.05;51.88;;;1.80;99.90;;;0.20;100.00;100848.75;4948147;28;20538;-83
2023/12/09 04:07:10;;;;;;;297.00;53.25;;;1.80;99.90;;;0.22;100.00;100850.47;4946278;28;20034;-84
2023/12/09 04:09:50;;;;;;;287.27;51.78;;;1.90;99.90;;;0.22;100.00;100848.75;4919063;28;20036;-82
2023/12/09 04:12:21;;;;;;;259.58;49.08;;;1.90;99.90;;;0.24;100.00;100849.63;4922186;28;20030;-83
2023/12/09 04:14:47;;;;;;;280.63;50.03;;;;;;;0.23;100.00;100849.59;4923276;28;20039;-83
2023/12/09 04:17:13;;;;;;;272.73;51.47;;;1.90;99.90;;;0.26;100.00;100852.19;4940124;28;20571;-83
2023/12/09 04:19:41;;;;;;;260.13;48.97;;;;;;;0.24;100.00;100844.44;4912337;28;20157;-82
2023/12/09 04:22:07;;;;;;;258.17;49.17;;;1.90;99.90;;;0.25;100.00;100842.69;4906691;28;20479;-82
2023/12/09 04:24:42;;;;;;;278.55;49.80;;;1.90;99.90;;;0.27;100.00;100849.59;4910550;28;20030;-83
2023/12/09 04:27:33;;;;;;;249.43;47.83;;;1.90;99.90;;;0.28;100.00;100847.84;4917654;28;20038;-83
2023/12/09 04:30:03;;;;;;;230.70;44.78;;;1.90;99.90;;;0.27;100.00;100844.41;4920737;23;20468;-84
2023/12/09 04:32:30;;;;;;;235.45;45.38;;;1.90;99.90;;;0.28;100.00;100837.50;4890550;28;20070;-83
2023/12/09 04:35:17;;;;;;;257.08;49.28;;;1.90;99.90;;;0.30;100.00;100846.13;4913719;28;20030;-82
2023/12/09 04:37:43;;;;;;;235.05;43.92;;;1.90;99.90;;;0.27;100.00;100841.81;4850853;28;20062;-83
2023/12/09 04:40:12;;;;;;;258.00;47.30;;;1.90;99.90;;;0.28;100.00;100845.28;4854366;28;20082;-83
2023/12/09 04:42:39;;;;;;;225.07;45.13;;;1.90;99.90;;;0.27;100.00;100849.59;4865527;29;20040;-82
2023/12/09 04:45:10;;;;;;;226.05;43.72;;;1.90;99.90;;;0.27;100.00;100844.41;4854136;29;20059;-83
2023/12/09 04:47:39;;;;;;;233.48;44.88;;;1.90;99.90;;;0.27;100.00;100848.75;4818155;29;20486;-82
2023/12/09 04:50:10;;;;;;;244.75;47.33;;;1.90;99.90;;;0.26;100.00;100841.81;4877916;23;20503;-83
2023/12/09 04:52:39;;;;;;;226.55;43.72;;;1.90;99.90;;;0.25;100.00;100832.34;4908457;28;20160;-83
2023/12/09 04:55:06;;;;;;;240.10;46.78;;;1.90;99.90;;;0.20;100.00;100830.63;4892067;28;20029;-82
2023/12/09 04:57:32;;;;;;;218.95;43.70;;;1.90;99.90;;;0.19;100.00;100835.78;4894000;28;20486;-83
2023/12/09 05:00:10;;;;;;;237.27;46.65;;;;;;;0.24;100.00;100839.25;4871645;28;20048;-83
2023/12/09 05:02:39;;;;;;;229.32;44.95;;;1.90;99.90;;;0.28;100.00;100846.16;4893761;28;20039;-83
2023/12/09 05:05:11;;;;;;;214.20;43.15;;;;;;;0.28;100.00;100842.69;4847921;29;20040;-84
2023/12/09 05:07:37;;;;;;;240.40;46.33;;;1.90;99.90;;;0.28;100.00;100846.16;4897896;28;20048;-83
2023/12/09 05:10:04;;;;;;;228.75;43.15;;;1.90;99.90;;;0.29;100.00;100836.66;4906030;28;20037;-83
2023/12/09 05:12:29;;;;;;;204.43;40.35;;;1.90;99.90;;;0.25;100.00;100837.53;4937520;28;20132;-83
2023/12/09 05:15:04;;;;;;;254.68;47.50;;;;;;;0.30;100.00;100828.88;4867178;28;20077;-83
2023/12/09 05:17:32;;;;;;;206.82;40.72;;;1.90;99.90;;;0.26;100.00;100815.91;4894677;28;20058;-84
2023/12/09 05:19:58;;;;;;;165.40;39.20;;;1.90;99.90;;;0.23;100.00;100806.44;4900871;28;20404;-83
2023/12/09 05:22:29;;;;;;;204.50;42.55;;;1.90;99.90;;;0.22;100.00;100824.56;4905242;28;20038;-83
2023/12/09 05:24:57;;;;;;;197.05;42.95;;;1.90;99.90;;;0.26;100.00;100827.16;4922125;28;20636;-83
2023/12/09 05:27:23;;;;;;;186.65;39.38;;;1.80;99.90;;;0.23;100.00;100823.72;4887148;28;20498;-83
2023/12/09 05:29:49;;;;;;;239.07;44.58;;;1.90;99.90;;;0.26;100.00;100826.28;4908657;28;20115;-83
2023/12/09 05:32:41;;;;;;;196.38;41.25;;;1.90;99.90;;;0.26;100.00;100816.81;4940546;28;20427;-82
2023/12/09 05:35:07;;;;;;;170.50;37.92;;;1.90;99.90;;;0.21;100.00;100808.16;4801230;29;20036;-86
2023/12/09 05:37:33;;;;;;;169.23;39.45;;;1.80;99.90;;;0.17;100.00;100812.50;4839695;29;20045;-83
2023/12/09 05:39:59;;;;;;;216.52;44.95;;;2.40;99.90;;;0.19;100.00;100810.78;4785528;29;20070;-82
2023/12/09 05:42:33;;;;;;;177.43;38.03;;;1.80;99.90;;;0.19;100.00;100815.06;4825243;29;20033;-83
2023/12/09 05:45:00;;;;;;;158.60;34.70;;;;;;;0.16;100.00;100805.59;4808611;29;20060;-83
2023/12/09 05:47:25;;;;;;;176.77;37.15;;;1.80;99.90;;;0.15;100.00;100809.06;4833321;29;20051;-83
2023/12/09 05:50:00;;;;;;;205.05;41.72;;;1.90;99.90;;;0.16;100.00;100812.50;4838319;29;20703;-83
2023/12/09 05:52:26;;;;;;;196.93;42.67;;;1.80;99.90;;;0.18;100.00;100821.13;4779056;29;20061;-83
2023/12/09 05:54:52;;;;;;;201.05;41.88;;;1.80;99.90;;;0.27;100.00;100812.47;4826050;29;20055;-86
2023/12/09 05:57:25;;;;;;;204.15;42.53;;;1.90;99.90;;;0.27;100.00;100820.25;4809017;29;20119;-83
2023/12/09 05:59:53;;;;;;;250.73;46.80;;;1.90;99.90;;;0.33;100.00;100813.31;4840803;29;20428;-83
2023/12/09 06:02:21;;;;;;;212.77;40.75;;;2.00;99.90;;;0.35;100.00;100808.16;4812355;29;20043;-82
2023/12/09 06:04:56;;;;;;;231.48;42.97;;;2.00;99.90;;;0.35;100.00;100800.38;4827334;29;20047;-83
2023/12/09 06:07:21;;;;;;;220.25;42.22;;;2.00;99.90;;;0.38;100.00;100802.94;4808963;29;20042;-86
2023/12/09 06:09:47;;;;;;;225.45;44.03;;;2.00;99.90;;;0.37;100.00;100799.50;4867013;23;21147;-83
2023/12/09 06:12:13;;;;;;;217.25;42.88;;;2.00;99.90;;;0.38;100.00;100795.16;4900764;28;20047;-84
2023/12/09 06:14:51;;;;;;;234.52;45.20;;;2.00;99.90;;;0.39;100.00;100805.53;4929299;28;20053;-83
2023/12/09 06:17:17;;;;;;;268.40;47.45;;;2.00;99.90;;;0.43;100.00;100802.91;4888323;28;20971;-83
2023/12/09 06:19:52;;;;;;;248.63;44.78;;;2.00;99.90;;;0.45;100.00;100807.22;4931414;28;20041;-85
2023/12/09 06:22:19;;;;;;;241.13;46.03;;;;;;;0.48;100.00;100816.75;4933566;28;20029;-83
2023/12/09 06:24:45;;;;;;;225.52;44.35;;;2.10;99.90;;;0.51;100.00;100809.78;4940394;28;20053;-83
2023/12/09 06:27:21;;;;;;;246.05;46.50;;;2.10;99.90;;;0.54;100.00;100819.28;4925445;28;20041;-83
2023/12/09 06:29:50;;;;;;;255.32;45.55;;;2.10;99.90;;;0.51;100.00;100808.94;4939991;28;20057;-82
2023/12/09 06:32:30;;;;;;;230.35;41.20;;;2.10;99.90;;;0.50;100.00;100813.25;4939228;28;20038;-83
2023/12/09 06:35:05;;;;;;;213.73;40.92;;;2.10;99.90;;;0.47;100.00;100815.84;4940994;28;20570;-83
2023/12/09 06:37:33;;;;;;;197.60;38.03;;;2.10;99.90;;;0.43;100.00;100814.13;4929287;28;20073;-84
2023/12/09 06:42:48;;;;;;;237.27;44.03;;;2.00;99.90;;;0.43;100.00;100816.72;4906433;28;20094;-83
2023/12/09 06:45:14;;;;;;;220.98;43.17;;;2.00;99.90;;;0.44;100.00;100815.03;4927027;28;20034;-83
2023/12/09 06:47:43;;;;;;;247.70;44.22;;;;;;;0.46;100.00;100816.72;4867922;28;20163;-82
2023/12/09 06:50:19;;;;;;;228.60;41.58;;;;;;;0.48;100.00;100821.91;4890237;28;20079;-82
2023/12/09 06:52:44;;;;;;;243.52;44.92;;;2.10;99.90;;;0.45;100.00;100827.94;4887094;28;20150;-83
2023/12/09 06:55:10;;;;;;;269.95;44.03;;;2.10;99.90;;;0.47;100.00;100822.78;4872482;28;20047;-82
2023/12/09 06:57:44;;;;;;;241.95;45.53;;;2.10;99.90;;;0.46;100.00;100824.50;4887613;28;20054;-83
2023/12/09 07:00:12;;;;;;;274.63;53.67;;;2.10;99.90;;;0.46;100.00;100815.88;4899501;28;20741;-83
2023/12/09 07:02:39;;;;;;;212.40;40.60;;;2.00;99.90;;;0.37;100.00;100804.69;4904148;28;20520;-83
2023/12/09 07:05:14;;;;;;;229.55;46.97;;;;;;;0.40;100.00;100808.97;4911197;28;20116;-84
2023/12/09 07:07:42;;;;;;;244.68;44.03;;;2.00;99.90;;;0.45;100.00;100824.50;4884829;28;20059;-83
2023/12/09 07:10:20;;;;;;;232.05;44.03;;;;;;;0.41;100.00;100826.22;4866136;28;20034;-82
2023/12/09 07:12:45;;;;;;;227.35;43.10;;;2.00;99.90;;;0.37;100.00;100819.38;4886195;28;20514;-83
2023/12/09 07:15:12;;;;;;;154.65;33.15;;;2.00;99.90;;;0.33;100.00;100817.66;4860010;28;20136;-83
2023/12/09 07:17:43;;;;;;;209.18;38.95;;;2.00;99.90;;;0.32;100.00;100824.53;4848272;28;20039;-83
2023/12/09 07:20:12;;;;;;;188.57;36.22;;;2.00;99.90;;;0.32;100.00;100821.94;4878570;28;20491;-82
2023/12/09 07:23:20;;;;;;;226.55;41.05;;;2.00;99.90;;;0.35;100.00;100827.13;4928267;28;20128;-82
2023/12/09 07:25:49;;;;;;;209.38;36.30;;;2.00;99.90;;;0.33;100.00;100825.41;4813184;29;20130;-82
2023/12/09 07:28:15;;;;;;;219.40;38.67;;;2.00;99.90;;;0.32;100.00;100818.50;4870444;28;20039;-83
2023/12/09 07:30:53;;;;;;;256.92;41.97;;;2.00;99.90;;;0.32;100.00;100810.72;4842952;28;20091;-83
2023/12/09 07:33:19;;;;;;;253.52;40.50;;;2.00;99.90;;;0.31;100.00;100809.88;4884895;28;20634;-83
2023/12/09 07:35:51;;;;;;;258.13;40.08;;;;;;;0.35;100.00;100809.00;4870136;28;20051;-82
2023/12/09 07:38:20;;;;;;;237.63;39.25;;;2.00;99.90;;;0.33;100.00;100807.28;4836712;28;20043;-83
2023/12/09 07:41:11;;;;;;;252.07;39.92;;;2.00;99.90;;;0.37;100.00;100811.59;4865963;29;20036;-83
2023/12/09 07:43:40;;;;;;;285.38;42.38;;;2.00;99.90;;;0.35;100.00;100806.41;4840246;29;20049;-82
2023/12/09 07:46:32;;;;;;;219.25;34.42;;;2.00;99.90;;;0.33;100.00;100804.69;4883332;29;20130;-82
2023/12/09 07:52:50;;;;;;;;;;;;;;;;;;;;;
2023/12/09 08:00:41;;;;;;;;;;;;;;;;;;;;;
2023/12/09 08:06:41;;;;;;;;;;;;;;;;;;;;;
2023/12/09 08:09:23;;;;;;;;;;;;;;;;;;;;;
2023/12/09 08:12:05;;;;;;;;;;;;;;;;;;;;;
2023/12/09 08:29:03;;;;;;;;;;;;;;;;;;;;;
2023/12/09 08:41:53;;;;;;;;;;;;;;;;;;;;;
2023/12/09 08:45:11;;;;;;;265.40;39.10;;;;;;;0.32;100.00;100772.72;4781323;29;20045;-84
2023/12/09 09:04:49;;;;;;;;;;;;;;;;;;;;;
2023/12/09 09:11:13;;;;;;;;;;;;;;;;;;;;;
2023/12/09 09:17:21;;;;;;;;;;;;;;;;;;;;;
2023/12/09 09:32:53;;;;;;;;;;;;;;;;;;;;;
2023/12/09 09:36:51;;;;;;;;;;;;;;;;;;;;;
2023/12/09 13:08:28;;;;;;;331.48;35.95;;;2.90;99.90;;;1.29;100.00;100481.63;6159945;22;20436;-89
2023/12/09 13:14:49;;;;;;;356.00;38.65;;;2.90;99.90;;;1.31;100.00;100499.78;6149816;23;20365;-89
2023/12/09 13:17:31;;;;;;;313.00;36.80;;;;;;;1.31;100.00;100487.66;5981087;23;20694;-89
2023/12/09 13:20:49;;;;;;;353.75;40.08;;;2.90;99.90;;;1.31;100.00;100486.81;6106750;23;20351;-89
2023/12/09 13:23:38;;;;;;;323.80;35.33;;;2.90;99.90;;;1.22;100.00;100492.97;6076297;23;20084;-89
2023/12/09 13:26:17;;;;;;;293.80;36.33;;;2.80;99.90;;;1.15;100.00;100489.59;5996669;23;20334;-90
2023/12/09 13:32:26;;;;;;;273.27;34.10;;;;;;;1.12;100.00;100479.25;6162023;22;20476;-89
2023/12/09 13:35:06;;;;;;;353.05;38.05;;;2.70;99.90;;;1.10;100.00;100473.25;6005167;23;20034;-89
2023/12/09 13:37:48;;;;;;;332.70;38.88;;;2.80;99.90;;;1.13;100.00;100475.78;5967618;23;20026;-88
2023/12/09 13:41:30;;;;;;;331.52;36.38;;;2.80;99.90;;;1.13;100.00;100470.59;6017037;23;20027;-89
2023/12/09 13:44:00;;;;;;;339.23;38.25;;;;;;;1.10;100.00;100467.19;5965696;24;20044;-89
2023/12/09 13:46:40;;;;;;;331.38;38.17;;;;;;;1.13;100.00;100439.47;5893613;23;20029;-90
2023/12/09 13:49:18;;;;;;;311.20;37.03;;;;;;;1.14;100.00;100445.53;5861489;24;20131;-90
2023/12/09 13:52:28;;;;;;;306.80;37.13;;;;;;;1.17;100.00;100435.13;5877574;23;20615;-89
2023/12/09 13:55:39;;;;;;;253.52;33.42;;;2.80;99.90;;;1.17;100.00;100437.72;5816731;24;20025;-89
2023/12/09 13:58:49;;;;;;;270.33;32.78;;;2.80;99.90;;;1.11;100.00;100441.22;5765433;24;20574;-89
2023/12/09 14:01:19;;;;;;;263.75;34.85;;;;;;;1.10;100.00;100443.84;5751742;24;20489;-89
2023/12/09 14:05:07;;;;;;;;;;;;;;;;;;;;;
2023/12/09 14:07:40;;;;;;;209.40;28.77;;;2.60;99.90;;;0.98;100.00;100432.75;5720527;24;20765;-88
2023/12/09 14:10:18;;;;;;;253.90;32.33;;;2.60;99.90;;;0.98;100.00;100434.50;5861662;22;20463;-87
2023/12/09 14:12:59;;;;;;;251.13;32.35;;;;;;;0.97;100.00;100432.75;6050727;23;20010;-87
2023/12/09 14:24:16;;;;;;;289.15;36.80;;;;;;;0.95;100.00;100403.38;6136737;23;20469;-87
2023/12/09 14:26:50;;;;;;;287.20;36.35;;;;;;;0.95;100.00;100396.50;6176685;23;20096;-87
2023/12/09 14:32:09;;;;;;;317.75;37.17;;;2.60;99.90;;;0.99;100.00;100400.78;6176412;23;20027;-87
2023/12/09 14:34:38;;;;;;;338.95;38.83;;;2.60;99.90;;;0.99;100.00;100398.19;6135853;23;20024;-87
2023/12/09 14:38:19;;;;;;;340.25;35.88;;;2.60;99.90;;;0.97;100.00;100394.75;6149044;23;20036;-88
2023/12/09 14:40:59;;;;;;;371.35;44.17;;;;;;;0.98;100.00;100380.03;6038064;23;20015;-87
2023/12/09 14:43:41;;;;;;;368.42;45.70;;;2.60;99.90;;;0.98;100.00;100367.06;5952084;23;20024;-87
2023/12/09 14:46:07;;;;;;;335.50;32.03;;;2.60;99.90;;;0.98;100.00;100367.06;6009333;23;20021;-87
2023/12/09 14:48:59;;;;;;;434.25;41.45;;;;;;;0.98;100.00;100364.47;5990651;23;20023;-87
2023/12/09 14:51:38;;;;;;;404.95;34.47;;;;;;;0.97;100.00;100361.03;6062294;23;20027;-88
2023/12/09 14:54:19;;;;;;;477.17;34.88;;;;;;;0.94;100.00;100355.88;5920972;23;20636;-87
2023/12/09 14:57:28;;;;;;;535.50;37.97;;;2.60;99.90;;;0.95;100.00;100359.31;5992357;23;20085;-87
2023/12/09 15:06:20;;;;;;;560.58;36.90;;;;;;;0.94;100.00;100336.88;6145230;23;20400;-86
2023/12/09 15:09:00;;;;;;;;;;;2.50;99.90;;;0.88;100.00;100329.19;6065240;23;20701;-86
2023/12/09 15:15:04;;;;;;;;;;;;;;;;;;;;;
2023/12/09 15:17:33;;;;;;;617.53;33.63;;;;;;;0.85;100.00;100324.91;6098550;23;20826;-87
2023/12/09 15:19:59;;;;;;;574.17;35.95;;;2.50;99.90;;;0.87;100.00;100307.59;6132272;22;20031;-86
2023/12/09 15:25:46;;;;;;;552.30;33.80;;;;;;;0.88;100.00;100309.28;6124486;23;20016;-87
2023/12/09 15:28:58;;;;;;;553.22;31.77;;;2.50;99.90;;;0.89;100.00;100300.66;6142120;23;20175;-87
2023/12/09 15:39:17;;;;;;;;;;;;;;;;;;;;;
2023/12/09 15:42:01;;;;;;;;;;;;;;;;;;;;;
2023/12/09 15:44:40;;;;;;;;;;;;;;;;;;;;;
2023/12/09 15:47:11;;;;;;;501.15;32.13;;;;;;;0.99;100.00;100250.41;6177600;23;20095;-90
2023/12/09 15:53:40;;;;;;;;;;;;;;;;;;;;;
2023/12/09 16:13:50;;;;;;;431.98;26.33;;;2.50;99.90;;;0.87;100.00;100229.81;6137111;23;20070;-90
2023/12/09 16:17:01;;;;;;;436.60;31.83;;;;;;;0.92;100.00;100228.00;6084220;23;20555;-91
2023/12/09 16:22:39;;;;;;;471.15;29.38;;;;;;;0.90;100.00;100222.00;6188307;22;20369;-91
2023/12/09 16:26:12;;;;;;;;;;;;;;;;;;;;;
2023/12/09 16:28:59;;;;;;;444.45;27.58;;;2.50;99.90;;;0.85;100.00;100210.00;6078470;23;20596;-91
2023/12/09 16:45:48;;;;;;;438.40;35.17;;;;;;;0.79;100.00;100175.50;6152174;23;20059;-90
2023/12/09 16:55:39;;;;;;;460.98;28.05;;;;;;;0.85;100.00;100169.38;6221302;22;20015;-90
2023/12/09 16:59:10;;;;;;;278.88;22.35;;;2.50;99.90;;;0.87;100.00;100161.59;6119605;23;20394;-89
2023/12/09 17:01:49;;;;;;;357.25;26.60;;;;;;;0.86;100.00;100152.94;6165388;22;20444;-89
2023/12/09 17:08:59;;;;;;;382.67;22.70;;;2.30;99.90;;;0.88;100.00;100138.22;6158474;22;20050;-89
2023/12/09 17:11:52;;;;;;;;;;;;;;;;;;;;;
2023/12/09 17:18:19;;;;;;;374.45;26.10;;;2.40;99.90;;;0.82;100.00;100126.22;6058874;23;20038;-89
2023/12/09 17:21:32;;;;;;;308.98;24.17;;;2.50;99.90;;;0.84;100.00;100120.16;6082106;23;20030;-90
2023/12/09 17:24:20;;;;;;;;;;;;;;;;;;;;;
2023/12/09 17:26:50;;;;;;;271.40;21.13;;;;;;;0.80;100.00;100116.78;6094247;23;21925;-89
2023/12/09 17:29:19;;;;;;;218.00;18.45;;;;;;;0.82;100.00;100109.78;6035288;23;20018;-90
2023/12/09 17:35:42;;;;;;;377.20;26.38;;;2.50;99.90;;;0.90;100.00;100105.34;6023596;23;20022;-89